Time;durP1;ratioP1;P1;durP2;ratioP2;P2;SDS_P1;SDS_P2;PMS_P1;PMS_P2;Temp;Humidity;BMP_temperature;BMP_pressure;BME280_temperature;BME280_humidity;BME280_pressure;Samples;Min_cycle;Max_cycle;Signal;HPM_P1;HPM_P2
2024/01/31 00:01:29;;;;;;;16.23;10.43;;;;;;;9.50;74.76;102268.38;3975697;29;20115;-76
2024/01/31 00:03:32;;;;;;;14.35;10.60;;;;;;;9.48;75.23;102264.84;3964280;29;20058;-76
2024/01/31 00:05:34;;;;;;;15.82;10.95;;;;;;;9.47;75.10;102271.72;3978837;29;20134;-76
2024/01/31 00:07:37;;;;;;;16.80;10.68;;;;;;;9.44;75.21;102275.06;3976058;29;20493;-76
2024/01/31 00:09:41;;;;;;;16.15;10.70;;;;;;;9.46;75.19;102277.72;3981400;29;20050;-76
2024/01/31 00:11:43;;;;;;;16.23;11.75;;;;;;;9.42;75.27;102287.06;3946063;30;20042;-76
2024/01/31 00:13:45;;;;;;;16.27;10.25;;;;;;;9.40;75.19;102273.16;3961858;29;20467;-76
2024/01/31 00:15:48;;;;;;;17.70;11.07;;;;;;;9.37;74.95;102274.69;3976846;29;20070;-76
2024/01/31 00:17:54;;;;;;;16.13;11.77;;;;;;;9.41;74.90;102264.53;3977524;29;20499;-76
2024/01/31 00:19:56;;;;;;;14.95;10.70;;;;;;;9.36;75.19;102270.31;3960537;29;20575;-76
2024/01/31 00:22:00;;;;;;;15.85;10.43;;;;;;;9.33;75.35;102271.06;3975614;29;20070;-76
2024/01/31 00:24:03;;;;;;;15.57;10.32;;;;;;;9.32;75.70;102269.28;3976671;29;20051;-76
2024/01/31 00:26:06;;;;;;;14.43;12.23;;;;;;;9.34;75.58;102267.63;3975531;29;20051;-76
2024/01/31 00:28:09;;;;;;;15.88;11.43;;;;;;;9.32;75.77;102279.66;3961268;29;20426;-76
2024/01/31 00:30:13;;;;;;;16.13;11.18;;;;;;;9.33;75.48;102280.53;3975851;29;20490;-76
2024/01/31 00:32:16;;;;;;;13.38;10.30;;;;;;;9.33;75.86;102275.34;3975086;29;20053;-76
2024/01/31 00:34:20;;;;;;;14.20;10.35;;;;;;;9.34;75.63;102275.41;3976037;29;20054;-76
2024/01/31 00:36:23;;;;;;;14.80;10.48;;;;;;;9.28;75.86;102277.72;3976784;29;20038;-76
2024/01/31 00:38:26;;;;;;;14.63;10.30;;;;;;;9.31;75.65;102282.19;3977476;29;20049;-76
2024/01/31 00:40:28;;;;;;;16.83;10.57;;;;;;;9.36;75.83;102284.19;3977982;29;20383;-76
2024/01/31 00:42:31;;;;;;;19.98;10.68;;;;;;;9.38;75.84;102281.66;3977659;29;20074;-76
2024/01/31 00:44:33;;;;;;;14.57;9.68;;;;;;;9.40;76.00;102286.13;3975125;29;20445;-76
2024/01/31 00:46:41;;;;;;;12.30;9.25;;;;;;;9.43;75.65;102282.75;3973081;29;20062;-76
2024/01/31 00:48:44;;;;;;;15.35;9.55;;;;;;;9.42;76.01;102281.88;3976002;29;20062;-76
2024/01/31 00:50:49;;;;;;;17.17;10.40;;;;;;;9.46;76.20;102276.84;3976755;29;20061;-76
2024/01/31 00:52:51;;;;;;;15.73;9.68;;;;;;;9.48;76.08;102277.81;3979390;29;20101;-76
2024/01/31 00:54:54;;;;;;;15.10;9.73;;;;;;;9.49;75.57;102280.50;3949746;30;20141;-76
2024/01/31 00:56:57;;;;;;;15.15;10.10;;;;;;;9.48;75.86;102273.50;3962787;29;20050;-76
2024/01/31 00:59:00;;;;;;;15.40;9.57;;;;;;;9.53;75.98;102269.41;3975924;29;20409;-76
2024/01/31 01:01:03;;;;;;;13.88;9.70;;;;;;;9.56;75.66;102273.88;3974152;29;20043;-76
2024/01/31 01:03:06;;;;;;;14.50;9.15;;;;;;;9.58;75.72;102274.84;3976317;29;20047;-75
2024/01/31 01:05:10;;;;;;;13.63;9.48;;;;;;;9.59;75.83;102274.91;3979262;29;20553;-76
2024/01/31 01:07:15;;;;;;;14.40;10.18;;;;;;;9.58;75.62;102272.25;3959787;29;20575;-76
2024/01/31 01:09:18;;;;;;;14.45;9.00;;;;;;;9.55;75.50;102272.06;3976616;29;20050;-76
2024/01/31 01:11:21;;;;;;;17.05;9.50;;;;;;;9.55;76.14;102278.19;3975104;29;20051;-76
2024/01/31 01:13:23;;;;;;;16.52;9.80;;;;;;;9.55;75.60;102272.97;3975592;29;20049;-76
2024/01/31 01:15:27;;;;;;;14.65;9.15;;;;;;;9.55;75.73;102272.06;3976709;29;20047;-76
2024/01/31 01:17:29;;;;;;;16.58;9.73;;;;;;;9.54;75.98;102275.50;3976161;29;20042;-76
2024/01/31 01:19:31;;;;;;;13.45;8.43;;;;;;;9.52;76.43;102272.84;3975848;29;20043;-76
2024/01/31 01:21:35;;;;;;;13.25;8.77;;;;;;;9.52;75.88;102271.94;3976467;29;20085;-76
2024/01/31 01:23:39;;;;;;;14.88;9.88;;;;;;;9.50;75.78;102264.06;3961193;29;20498;-76
2024/01/31 01:25:43;;;;;;;14.52;10.45;;;;;;;9.51;75.86;102270.19;3976468;29;20070;-76
2024/01/31 01:27:50;;;;;;;14.23;9.15;;;;;;;9.49;75.71;102271.78;3976301;29;20456;-76
2024/01/31 01:29:54;;;;;;;14.70;8.40;;;;;;;9.49;76.25;102266.59;3974622;29;20046;-76
2024/01/31 01:31:56;;;;;;;16.73;10.07;;;;;;;9.43;76.56;102260.31;3960325;29;20095;-76
2024/01/31 01:34:00;;;;;;;17.88;9.93;;;;;;;9.46;76.36;102261.25;3960208;29;20047;-76
2024/01/31 01:36:03;;;;;;;13.85;9.73;;;;;;;9.47;75.95;102266.53;3959690;29;20552;-76
2024/01/31 01:38:05;;;;;;;12.88;8.85;;;;;;;9.44;75.88;102275.06;3975942;29;20035;-76
2024/01/31 01:40:10;;;;;;;10.55;7.85;;;;;;;9.43;76.11;102269.78;3975793;29;20043;-76
2024/01/31 01:42:13;;;;;;;;;;;;;;;9.34;76.00;102267.63;3959787;29;20043;-76
2024/01/31 01:44:15;;;;;;;13.43;10.15;;;;;;;9.35;76.49;102272.03;3974394;29;19973;-76
2024/01/31 01:46:21;;;;;;;14.77;10.38;;;;;;;9.40;75.69;102265.34;3976600;29;20142;-76
2024/01/31 01:48:23;;;;;;;14.68;10.05;;;;;;;9.34;75.97;102266.75;3975360;29;20034;-76
2024/01/31 01:50:26;;;;;;;14.15;10.60;;;;;;;9.34;75.96;102269.34;3974690;29;20091;-76
2024/01/31 01:52:30;;;;;;;15.40;9.45;;;;;;;9.32;76.27;102264.09;3973558;29;20042;-76
2024/01/31 01:54:33;;;;;;;13.32;9.98;;;;;;;9.33;76.24;102270.16;3960885;30;20107;-76
2024/01/31 01:56:36;;;;;;;13.82;10.02;;;;;;;9.36;76.73;102271.22;3976284;29;20082;-76
2024/01/31 01:58:39;;;;;;;12.32;8.82;;;;;;;9.39;76.33;102265.28;3976545;29;20066;-76
2024/01/31 02:00:43;;;;;;;16.67;10.15;;;;;;;9.36;76.22;102255.63;3960104;29;20060;-76
2024/01/31 02:02:46;;;;;;;16.60;9.43;;;;;;;9.40;76.19;102267.97;3974558;29;20149;-76
2024/01/31 02:04:49;;;;;;;16.70;9.70;;;;;;;9.42;76.76;102266.31;3975472;29;20043;-76
2024/01/31 02:06:52;;;;;;;16.95;9.98;;;;;;;9.44;76.83;102274.16;3960490;30;20532;-75
2024/01/31 02:08:56;;;;;;;14.75;10.45;;;;;;;9.54;75.95;102278.09;3959475;29;20055;-76
2024/01/31 02:10:59;;;;;;;20.80;12.00;;;;;;;9.59;75.03;102290.50;3959455;29;20098;-76
2024/01/31 02:13:03;;;;;;;14.35;9.80;;;;;;;9.48;75.61;102280.41;3974406;29;20043;-75
2024/01/31 02:15:07;;;;;;;15.18;10.15;;;;;;;9.49;76.01;102282.19;3974088;29;20097;-75
2024/01/31 02:17:10;;;;;;;15.53;8.57;;;;;;;9.47;76.47;102278.63;3973917;29;20082;-75
2024/01/31 02:19:12;;;;;;;16.70;10.18;;;;;;;9.48;76.38;102280.41;3975019;29;20057;-75
2024/01/31 02:21:17;;;;;;;16.63;10.05;;;;;;;9.50;76.61;102283.97;3979100;29;20050;-76
2024/01/31 02:23:22;;;;;;;15.82;10.73;;;;;;;9.51;76.93;102290.94;3958714;29;20075;-76
2024/01/31 02:25:25;;;;;;;17.02;11.38;;;;;;;9.53;76.78;102284.09;3976650;29;20578;-75
2024/01/31 02:27:28;;;;;;;17.33;11.60;;;;;;;9.68;76.33;102287.44;3959401;29;20051;-76
2024/01/31 02:29:30;;;;;;;16.85;12.40;;;;;;;9.73;76.09;102292.84;3974985;29;20099;-76
2024/01/31 02:31:33;;;;;;;17.83;13.65;;;;;;;9.70;77.11;102287.53;3974551;29;20517;-76
2024/01/31 02:33:36;;;;;;;20.35;13.98;;;;;;;9.74;76.91;102295.53;3961591;29;20134;-76
2024/01/31 02:35:39;;;;;;;21.83;15.80;;;;;;;9.78;77.57;102287.06;3974591;29;20047;-76
2024/01/31 02:37:44;;;;;;;24.35;15.13;;;;;;;9.80;78.00;102287.13;3961355;29;20047;-76
2024/01/31 02:39:47;;;;;;;21.02;15.27;;;;;;;9.73;77.98;102287.66;3976429;29;20066;-76
2024/01/31 02:41:51;;;;;;;21.45;15.50;;;;;;;9.70;78.74;102283.19;3963693;29;20047;-76
2024/01/31 02:43:54;;;;;;;21.48;15.45;;;;;;;9.67;78.58;102288.25;3972680;29;20039;-76
2024/01/31 02:45:56;;;;;;;22.08;14.40;;;;;;;9.64;79.01;102288.13;3969019;29;20038;-76
2024/01/31 02:47:59;;;;;;;24.17;15.43;;;;;;;9.64;79.46;102290.72;3964660;30;20407;-76
2024/01/31 02:50:03;;;;;;;21.00;15.05;;;;;;;9.62;79.97;102289.72;3979294;29;20074;-76
2024/01/31 02:52:06;;;;;;;19.83;14.90;;;;;;;9.62;79.89;102276.75;3978632;29;20141;-76
2024/01/31 02:54:08;;;;;;;17.85;12.77;;;;;;;9.61;79.95;102281.06;3979341;29;20047;-76
2024/01/31 02:56:12;;;;;;;20.77;14.23;;;;;;;9.61;79.74;102282.78;3963900;29;20502;-75
2024/01/31 02:58:15;;;;;;;21.08;13.70;;;;;;;9.63;80.38;102293.22;3981038;29;20134;-76
2024/01/31 03:00:19;;;;;;;24.65;16.45;;;;;;;9.65;79.96;102295.09;3981815;29;20102;-76
2024/01/31 03:02:22;;;;;;;21.25;16.42;;;;;;;9.69;80.63;102293.53;3963979;29;20141;-76
2024/01/31 03:04:25;;;;;;;19.77;13.93;;;;;;;9.69;80.29;102289.19;3979598;29;20039;-76
2024/01/31 03:06:28;;;;;;;18.55;13.77;;;;;;;9.68;80.42;102289.13;3966960;29;20142;-76
2024/01/31 03:08:30;;;;;;;21.02;13.60;;;;;;;9.69;79.99;102293.53;3964196;29;20142;-76
2024/01/31 03:10:33;;;;;;;20.63;14.57;;;;;;;9.70;80.37;102296.19;3979600;29;20490;-76
2024/01/31 03:12:37;;;;;;;18.92;13.50;;;;;;;9.70;79.95;102293.59;3979497;29;20062;-76
2024/01/31 03:14:41;;;;;;;17.15;13.00;;;;;;;9.70;79.88;102297.91;3980503;29;20069;-76
2024/01/31 03:16:44;;;;;;;17.95;13.55;;;;;;;9.70;80.02;102293.59;3978253;29;20045;-76
2024/01/31 03:18:46;;;;;;;20.85;13.85;;;;;;;9.72;80.32;102297.13;3976585;29;20570;-76
2024/01/31 03:20:54;;;;;;;19.40;13.43;;;;;;;9.74;79.44;102294.66;3980652;29;20043;-76
2024/01/31 03:22:57;;;;;;;19.17;13.73;;;;;;;9.77;79.54;102285.28;3963922;29;20556;-76
2024/01/31 03:25:00;;;;;;;17.80;13.73;;;;;;;9.76;79.30;102293.88;3980436;29;20042;-76
2024/01/31 03:27:03;;;;;;;19.13;13.95;;;;;;;9.77;79.46;102298.25;3979674;29;20053;-76
2024/01/31 03:29:08;;;;;;;19.40;13.30;;;;;;;9.81;79.19;102299.28;3977823;29;20066;-76
2024/01/31 03:31:10;;;;;;;20.90;14.40;;;;;;;9.86;79.16;102303.00;3978525;29;20505;-76
2024/01/31 03:33:13;;;;;;;23.30;15.85;;;;;;;9.83;79.11;102305.44;3964371;30;20043;-76
2024/01/31 03:35:17;;;;;;;22.92;15.55;;;;;;;9.85;79.27;102302.94;3979956;29;20471;-76
2024/01/31 03:37:19;;;;;;;17.48;14.05;;;;;;;9.75;78.83;102302.50;3963621;29;20130;-76
2024/01/31 03:39:22;;;;;;;18.70;12.88;;;;;;;9.69;79.73;102296.13;3979240;29;20035;-76
2024/01/31 03:41:24;;;;;;;25.55;15.60;;;;;;;9.69;79.96;102303.91;3980169;29;20054;-76
2024/01/31 03:43:27;;;;;;;21.70;16.27;;;;;;;9.74;79.55;102305.03;3972824;29;20050;-76
2024/01/31 03:45:32;;;;;;;22.75;14.98;;;;;;;9.72;80.14;102314.44;3973450;29;20051;-76
2024/01/31 03:47:35;;;;;;;19.58;14.27;;;;;;;9.86;79.20;102307.31;3976288;29;20130;-76
2024/01/31 03:49:38;;;;;;;22.52;13.55;;;;;;;9.67;79.28;102308.16;3980451;29;20039;-76
2024/01/31 03:51:41;;;;;;;22.60;15.32;;;;;;;9.60;79.51;102313.03;3977905;29;20478;-76
2024/01/31 03:53:42;;;;;;;19.33;14.18;;;;;;;9.62;79.72;102331.28;3976787;29;20064;-76
2024/01/31 03:55:46;;;;;;;21.42;15.50;;;;;;;9.67;79.43;102326.34;3977464;29;20046;-76
2024/01/31 03:57:48;;;;;;;21.33;14.90;;;;;;;9.64;79.94;102332.25;3976280;29;20059;-76
2024/01/31 03:59:50;;;;;;;19.88;14.20;;;;;;;9.64;79.68;102340.06;3976264;29;20039;-76
2024/01/31 04:01:55;;;;;;;18.10;12.50;;;;;;;9.63;79.43;102332.19;3977920;29;20521;-76
2024/01/31 04:03:58;;;;;;;14.55;11.07;;;;;;;9.61;79.89;102338.19;3946360;30;20063;-76
2024/01/31 04:05:59;;;;;;;18.17;12.10;;;;;;;9.60;79.81;102339.00;3975961;29;20072;-76
2024/01/31 04:08:03;;;;;;;21.83;11.60;;;;;;;9.62;79.53;102339.06;3977040;29;20075;-76
2024/01/31 04:10:06;;;;;;;17.70;13.00;;;;;;;9.63;79.94;102338.25;3977384;29;20053;-76
2024/01/31 04:12:09;;;;;;;20.40;12.50;;;;;;;9.71;79.51;102334.34;3961345;29;20055;-76
2024/01/31 04:14:13;;;;;;;22.10;15.45;;;;;;;9.69;78.96;102333.34;3978628;29;20549;-76
2024/01/31 04:16:16;;;;;;;19.23;14.52;;;;;;;9.61;79.15;102350.28;3977218;29;20394;-77
2024/01/31 04:18:20;;;;;;;15.95;11.07;;;;;;;9.53;78.95;102364.59;3960862;29;20514;-76
2024/01/31 04:20:23;;;;;;;18.52;11.35;;;;;;;9.58;79.01;102366.59;3946438;30;20113;-76
2024/01/31 04:22:26;;;;;;;18.83;11.15;;;;;;;9.55;78.83;102360.34;3960963;29;20053;-76
2024/01/31 04:24:29;;;;;;;16.40;10.60;;;;;;;9.52;78.67;102360.22;3969585;29;20047;-76
2024/01/31 04:26:32;;;;;;;18.02;11.65;;;;;;;9.49;78.70;102360.97;3976340;29;20042;-76
2024/01/31 04:28:34;;;;;;;12.75;9.18;;;;;;;9.49;78.82;102360.97;3961232;29;20054;-76
2024/01/31 04:30:37;;;;;;;15.80;10.40;;;;;;;9.52;78.38;102352.41;3976411;29;20042;-76
2024/01/31 04:32:40;;;;;;;15.20;10.98;;;;;;;9.60;77.78;102353.69;3964747;29;20074;-76
2024/01/31 04:34:44;;;;;;;14.48;10.77;;;;;;;9.58;78.07;102358.81;3975808;29;20134;-75
2024/01/31 04:36:47;;;;;;;14.25;10.02;;;;;;;9.59;77.55;102372.69;3969120;29;20053;-75
2024/01/31 04:38:50;;;;;;;20.88;9.48;;;;;;;9.57;76.32;102364.81;3977724;29;20057;-75
2024/01/31 04:40:52;;;;;;;13.63;7.95;;;;;;;9.57;76.27;102356.16;3975954;29;20081;-76
2024/01/31 04:42:55;;;;;;;16.52;7.97;;;;;;;9.58;75.79;102356.22;3960314;29;20138;-75
2024/01/31 04:44:58;;;;;;;11.45;7.82;;;;;;;9.55;75.09;102353.47;3977354;29;20494;-75
2024/01/31 04:47:01;;;;;;;15.23;8.27;;;;;;;9.46;75.98;102355.59;3976853;29;20046;-76
2024/01/31 04:49:04;;;;;;;14.02;8.73;;;;;;;9.43;76.27;102351.16;3977259;29;20138;-76
2024/01/31 04:51:08;;;;;;;12.27;7.45;;;;;;;9.38;76.03;102357.81;3964120;29;20058;-76
2024/01/31 04:53:11;;;;;;;10.57;6.75;;;;;;;9.39;76.74;102359.63;3975727;29;20429;-75
2024/01/31 04:55:14;;;;;;;9.90;5.93;;;;;;;9.38;76.15;102360.41;3962805;29;20039;-74
2024/01/31 04:57:17;;;;;;;10.43;6.75;;;;;;;9.38;76.48;102356.94;3990070;29;20047;-74
2024/01/31 04:59:21;;;;;;;9.35;5.72;;;;;;;9.36;75.80;102359.47;3974977;29;20050;-74
2024/01/31 05:01:23;;;;;;;12.40;5.63;;;;;;;9.37;75.33;102355.16;3993516;29;20047;-75
2024/01/31 05:03:27;;;;;;;9.80;6.63;;;;;;;9.49;75.27;102360.06;3991032;29;20045;-74
2024/01/31 05:05:30;;;;;;;13.07;6.38;;;;;;;9.59;74.74;102358.00;3987790;29;20043;-73
2024/01/31 05:07:34;;;;;;;12.90;7.95;;;;;;;9.53;74.36;102349.03;3962357;29;20464;-73
2024/01/31 05:09:37;;;;;;;19.55;11.52;;;;;;;9.50;74.96;102356.66;3978513;29;20070;-73
2024/01/31 05:11:40;;;;;;;20.27;12.90;;;;;;;9.40;75.84;102356.22;3960405;29;20521;-73
2024/01/31 05:13:43;;;;;;;18.17;12.52;;;;;;;9.39;76.16;102369.13;3970475;29;20049;-73
2024/01/31 05:15:46;;;;;;;19.23;12.10;;;;;;;9.38;76.87;102370.81;3977414;29;20051;-73
2024/01/31 05:17:48;;;;;;;16.70;11.63;;;;;;;9.34;76.73;102370.59;3975301;29;20051;-73
2024/01/31 05:19:51;;;;;;;18.60;12.45;;;;;;;9.37;76.88;102371.59;3977068;29;20051;-74
2024/01/31 05:21:54;;;;;;;18.98;12.05;;;;;;;9.42;76.76;102372.75;3960640;29;20124;-73
2024/01/31 05:23:58;;;;;;;20.58;13.43;;;;;;;9.45;76.44;102374.59;3961390;29;20472;-73
2024/01/31 05:26:01;;;;;;;27.70;13.63;;;;;;;9.49;77.18;102367.84;3976181;29;20074;-73
2024/01/31 05:28:04;;;;;;;15.57;11.73;;;;;;;9.48;76.49;102360.91;3977228;29;20043;-74
2024/01/31 05:30:08;;;;;;;19.05;11.18;;;;;;;9.41;76.58;102351.91;3977061;29;20047;-73
2024/01/31 05:32:11;;;;;;;17.45;12.45;;;;;;;9.39;76.91;102356.13;3976577;29;20049;-73
2024/01/31 05:34:14;;;;;;;22.10;12.75;;;;;;;9.39;76.88;102362.22;3976707;29;20047;-73
2024/01/31 05:36:17;;;;;;;14.02;10.77;;;;;;;9.37;76.72;102361.22;3976900;29;20688;-74
2024/01/31 05:38:20;;;;;;;19.73;12.05;;;;;;;9.44;76.31;102358.13;3976942;29;20484;-74
2024/01/31 05:40:24;;;;;;;18.83;12.15;;;;;;;9.41;76.52;102346.72;3976574;29;20071;-74
2024/01/31 05:42:26;;;;;;;17.77;12.80;;;;;;;9.47;76.21;102351.31;3960892;30;20054;-74
2024/01/31 05:44:29;;;;;;;21.10;11.48;;;;;;;9.53;75.51;102349.91;3976296;29;20049;-74
2024/01/31 05:46:32;;;;;;;18.52;12.00;;;;;;;9.41;75.84;102355.38;3975691;29;20141;-73
2024/01/31 05:48:35;;;;;;;19.33;12.20;;;;;;;9.39;75.50;102364.81;3976117;29;20505;-73
2024/01/31 05:50:37;;;;;;;19.75;11.10;;;;;;;9.41;75.19;102368.34;3976469;29;20039;-73
2024/01/31 05:52:43;;;;;;;18.17;12.52;;;;;;;9.39;75.00;102364.81;3976676;29;20066;-73
2024/01/31 05:54:46;;;;;;;18.17;12.77;;;;;;;9.35;75.04;102362.88;3960772;30;20054;-74
2024/01/31 05:56:51;;;;;;;18.73;11.15;;;;;;;9.29;75.03;102377.22;3975617;29;20046;-74
2024/01/31 05:58:59;;;;;;;16.35;11.85;;;;;;;9.29;74.59;102378.13;3975697;29;20051;-74
2024/01/31 06:01:01;;;;;;;14.25;10.73;;;;;;;9.28;74.47;102376.34;3972643;29;20038;-74
2024/01/31 06:03:05;;;;;;;14.98;9.98;;;;;;;9.17;74.62;102381.00;3960465;29;20460;-74
2024/01/31 06:05:08;;;;;;;20.67;11.15;;;;;;;9.29;74.07;102375.53;3975545;29;20047;-75
2024/01/31 06:07:12;;;;;;;17.15;10.15;;;;;;;9.20;73.68;102362.09;3975139;29;20293;-74
2024/01/31 06:09:15;;;;;;;18.95;10.48;;;;;;;9.21;74.24;102363.88;3975120;29;20054;-74
2024/01/31 06:11:17;;;;;;;15.63;8.60;;;;;;;9.19;73.93;102365.50;3975881;29;20150;-74
2024/01/31 06:13:21;;;;;;;12.65;8.05;;;;;;;9.23;73.65;102350.16;3958438;29;20229;-74
2024/01/31 06:15:25;;;;;;;11.50;6.97;;;;;;;9.25;73.10;102358.03;3975539;29;20063;-74
2024/01/31 06:17:28;;;;;;;15.02;8.68;;;;;;;9.34;72.34;102362.78;3970307;29;20513;-74
2024/01/31 06:19:31;;;;;;;13.13;8.30;;;;;;;9.31;71.73;102365.25;3974931;29;20560;-74
2024/01/31 06:21:34;;;;;;;11.98;7.55;;;;;;;9.19;72.08;102365.50;3981453;29;20050;-74
2024/01/31 06:23:36;;;;;;;13.45;7.32;;;;;;;9.15;72.47;102380.03;3968209;29;20505;-74
2024/01/31 06:25:39;;;;;;;16.38;8.02;;;;;;;9.14;72.62;102373.06;3976456;29;20046;-74
2024/01/31 06:27:42;;;;;;;16.02;7.25;;;;;;;9.13;72.77;102380.78;3960109;29;20051;-74
2024/01/31 06:29:47;;;;;;;9.45;5.80;;;;;;;9.09;72.40;102378.00;3959799;29;20051;-75
2024/01/31 06:31:51;;;;;;;8.95;5.05;;;;;;;9.07;72.31;102376.16;3976044;29;20081;-74
2024/01/31 06:33:53;;;;;;;;;;;;;;;8.97;71.92;102376.50;3976850;29;20432;-75
2024/01/31 06:35:57;;;;;;;8.95;4.80;;;;;;;8.98;72.32;102373.06;3976088;29;19931;-75
2024/01/31 06:38:00;;;;;;;10.20;4.80;;;;;;;8.96;71.95;102374.72;3976310;29;20051;-74
2024/01/31 06:40:04;;;;;;;8.73;4.40;;;;;;;8.96;72.01;102365.22;3960281;30;20043;-74
2024/01/31 06:42:07;;;;;;;12.10;5.45;;;;;;;8.96;71.76;102367.81;3974865;29;20078;-76
2024/01/31 06:44:10;;;;;;;11.40;5.50;;;;;;;8.96;72.00;102369.53;3959714;29;20058;-74
2024/01/31 06:46:18;;;;;;;7.60;4.70;;;;;;;8.89;72.37;102360.53;3975143;29;20047;-76
2024/01/31 06:48:22;;;;;;;8.02;4.85;;;;;;;8.80;72.73;102354.88;3973494;29;20492;-74
2024/01/31 06:50:25;;;;;;;7.30;4.03;;;;;;;8.77;72.53;102357.31;3959796;29;20055;-74
2024/01/31 06:52:28;;;;;;;8.50;5.10;;;;;;;8.72;72.53;102370.03;3974830;29;20047;-74
2024/01/31 06:54:31;;;;;;;9.38;4.82;;;;;;;8.66;72.69;102356.72;3960188;29;20415;-74
2024/01/31 06:56:34;;;;;;;8.18;4.68;;;;;;;8.67;72.34;102367.22;3976206;29;20082;-75
2024/01/31 06:58:38;;;;;;;8.82;5.13;;;;;;;8.66;72.42;102372.28;3969035;29;20434;-74
2024/01/31 07:00:41;;;;;;;10.98;5.35;;;;;;;8.68;71.97;102381.06;3975081;29;20050;-74
2024/01/31 07:02:45;;;;;;;10.15;4.32;;;;;;;8.65;72.19;102380.91;3976280;29;20621;-74
2024/01/31 07:04:48;;;;;;;7.97;4.07;;;;;;;8.64;72.36;102386.88;3969915;29;20046;-74
2024/01/31 07:06:51;;;;;;;7.22;4.20;;;;;;;8.65;72.10;102392.16;3959032;29;20043;-74
2024/01/31 07:08:55;;;;;;;6.38;3.33;;;;;;;8.66;72.03;102399.13;3974557;29;20482;-74
2024/01/31 07:10:56;;;;;;;7.32;3.25;;;;;;;8.65;71.82;102399.03;3974668;29;20106;-74
2024/01/31 07:12:59;;;;;;;10.75;3.85;;;;;;;8.67;72.23;102405.19;3975574;29;20054;-74
2024/01/31 07:15:02;;;;;;;8.57;3.88;;;;;;;8.68;71.85;102402.66;3975035;29;20035;-74
2024/01/31 07:17:05;;;;;;;7.60;3.97;;;;;;;8.67;72.03;102400.00;3974983;29;20115;-74
2024/01/31 07:19:09;;;;;;;8.35;3.72;;;;;;;8.67;72.02;102403.50;3972788;29;20125;-74
2024/01/31 07:21:24;;;;;;;8.45;4.95;;;;;;;8.66;71.90;102409.50;3975757;29;20043;-74
2024/01/31 07:23:26;;;;;;;9.60;3.92;;;;;;;8.62;72.15;102410.13;3959888;29;20089;-74
2024/01/31 07:25:28;;;;;;;8.73;4.03;;;;;;;8.59;71.96;102407.38;3974814;29;20134;-74
2024/01/31 07:27:31;;;;;;;8.30;4.90;;;;;;;8.61;71.99;102400.56;3976171;29;20042;-74
2024/01/31 07:29:34;;;;;;;10.50;5.05;;;;;;;8.52;71.79;102406.16;3978658;29;20099;-74
2024/01/31 07:31:37;;;;;;;7.75;3.95;;;;;;;8.46;72.28;102415.31;3976926;29;20049;-74
2024/01/31 07:33:40;;;;;;;7.38;4.03;;;;;;;8.46;72.30;102417.91;3972235;29;20454;-74
2024/01/31 07:35:44;;;;;;;11.15;6.03;;;;;;;8.50;72.43;102425.91;3947879;30;20057;-74
2024/01/31 07:37:47;;;;;;;7.72;4.80;;;;;;;8.54;72.33;102424.38;3962306;29;20050;-74
2024/01/31 07:39:49;;;;;;;8.65;4.07;;;;;;;8.58;72.43;102423.72;3962138;30;20582;-74
2024/01/31 07:41:52;;;;;;;9.13;4.53;;;;;;;8.56;72.53;102427.97;3977185;29;20701;-74
2024/01/31 07:43:54;;;;;;;7.68;4.90;;;;;;;8.60;72.57;102414.34;3973183;29;20129;-74
2024/01/31 07:45:57;;;;;;;10.95;5.18;;;;;;;8.56;72.27;102417.59;3962614;30;20122;-74
2024/01/31 07:47:59;;;;;;;6.68;4.30;;;;;;;8.51;72.40;102414.75;3962484;30;20047;-74
2024/01/31 07:50:04;;;;;;;10.05;4.50;;;;;;;8.47;72.73;102417.06;3962455;30;20061;-74
2024/01/31 07:52:08;;;;;;;8.23;3.80;;;;;;;8.48;72.92;102419.75;3961790;29;20039;-74
2024/01/31 07:54:11;;;;;;;7.82;4.50;;;;;;;8.54;72.80;102429.56;3969915;29;20068;-74
2024/01/31 07:56:14;;;;;;;7.57;4.03;;;;;;;8.60;72.62;102427.31;3962297;30;20087;-74
2024/01/31 07:58:16;;;;;;;11.07;3.92;;;;;;;8.60;72.67;102422.13;3962282;30;20053;-74
2024/01/31 08:00:21;;;;;;;8.77;4.57;;;;;;;8.59;72.97;102435.91;3978170;29;20099;-75
2024/01/31 08:02:24;;;;;;;9.00;4.57;;;;;;;8.59;73.11;102424.66;3976655;29;20133;-74
2024/01/31 08:04:27;;;;;;;7.35;4.57;;;;;;;8.63;73.07;102424.88;3978283;29;20043;-75
2024/01/31 08:06:30;;;;;;;6.95;4.20;;;;;;;8.63;73.04;102427.47;3977075;29;20058;-75
2024/01/31 08:08:34;;;;;;;9.10;4.82;;;;;;;8.62;73.72;102432.59;3983817;29;20424;-74
2024/01/31 08:10:37;;;;;;;11.40;4.70;;;;;;;8.62;73.53;102436.06;3977793;29;20096;-74
2024/01/31 08:12:41;;;;;;;9.82;4.00;;;;;;;8.63;73.48;102427.47;3977334;29;20042;-74
2024/01/31 08:14:44;;;;;;;6.40;3.67;;;;;;;8.64;73.68;102433.53;3975703;29;20137;-74
2024/01/31 08:16:49;;;;;;;10.65;4.28;;;;;;;8.67;73.73;102432.03;3977012;29;20066;-75
2024/01/31 08:18:53;;;;;;;8.15;4.68;;;;;;;8.72;73.77;102424.50;3976914;29;20484;-74
2024/01/31 08:20:56;;;;;;;7.57;3.83;;;;;;;8.76;73.72;102433.31;3972485;29;20047;-74
2024/01/31 08:22:59;;;;;;;8.23;3.70;;;;;;;8.68;73.17;102438.97;3977735;29;20440;-74
2024/01/31 08:25:04;;;;;;;9.45;3.92;;;;;;;8.62;72.69;102437.78;3978101;29;20043;-74
2024/01/31 08:27:06;;;;;;;9.85;4.50;;;;;;;8.63;72.52;102432.66;3978013;29;20142;-74
2024/01/31 08:29:09;;;;;;;6.53;3.88;;;;;;;8.73;72.96;102431.44;3977914;29;20043;-74
2024/01/31 08:31:24;;;;;;;;;;;;;;;8.69;72.69;102432.09;3978352;29;20439;-74
2024/01/31 08:33:27;;;;;;;9.63;4.18;;;;;;;8.78;72.59;102432.59;3977378;29;19925;-74
2024/01/31 08:35:30;;;;;;;7.43;3.67;;;;;;;8.87;72.35;102429.59;3984085;29;20463;-74
2024/01/31 08:37:33;;;;;;;7.50;3.63;;;;;;;8.94;72.50;102434.28;3976740;29;20050;-74
2024/01/31 08:39:36;;;;;;;5.88;2.80;;;;;;;8.98;71.33;102419.78;3961463;29;20073;-74
2024/01/31 08:41:39;;;;;;;4.45;2.45;;;;;;;9.03;71.51;102415.72;3960478;29;20051;-74
2024/01/31 08:43:42;;;;;;;9.32;3.58;;;;;;;9.06;70.97;102421.94;3977655;29;20505;-74
2024/01/31 08:45:45;;;;;;;8.00;3.40;;;;;;;9.08;70.35;102419.44;3976302;29;20046;-74
2024/01/31 08:47:48;;;;;;;9.00;3.75;;;;;;;9.12;70.38;102426.56;3976488;29;20057;-74
2024/01/31 08:49:51;;;;;;;5.93;2.97;;;;;;;9.16;69.97;102422.44;3955693;30;20138;-74
2024/01/31 08:51:53;;;;;;;9.65;3.40;;;;;;;9.18;69.73;102426.00;3977244;29;20047;-74
2024/01/31 08:53:56;;;;;;;9.05;4.22;;;;;;;9.17;69.52;102421.63;3975121;29;20057;-74
2024/01/31 08:55:59;;;;;;;7.57;3.88;;;;;;;9.16;69.53;102417.25;3961481;30;20473;-74
2024/01/31 08:58:11;;;;;;;10.48;3.70;;;;;;;9.23;69.24;102421.97;3977529;29;20057;-74
2024/01/31 09:00:15;;;;;;;13.35;3.63;;;;;;;9.27;69.71;102418.69;3961386;30;20065;-74
2024/01/31 09:02:18;;;;;;;8.85;3.92;;;;;;;9.31;69.71;102428.41;3961412;30;20540;-74
2024/01/31 09:04:20;;;;;;;6.68;3.10;;;;;;;9.34;69.56;102428.56;3960871;29;20112;-75
2024/01/31 09:06:25;;;;;;;12.15;3.35;;;;;;;9.38;69.28;102429.63;3976174;29;20072;-74
2024/01/31 09:08:28;;;;;;;6.68;3.60;;;;;;;9.42;69.78;102427.25;3974127;29;20054;-74
2024/01/31 09:10:31;;;;;;;8.25;3.38;;;;;;;9.46;69.99;102432.59;3975722;29;20138;-74
2024/01/31 09:12:34;;;;;;;5.18;2.80;;;;;;;9.40;68.65;102423.72;3976156;29;20046;-74
2024/01/31 09:14:38;;;;;;;5.35;3.00;;;;;;;9.41;68.37;102424.59;3976844;29;20038;-75
2024/01/31 09:16:41;;;;;;;3.88;2.55;;;;;;;9.43;68.44;102423.88;3966672;29;20043;-74
2024/01/31 09:18:44;;;;;;;5.90;2.95;;;;;;;9.44;67.80;102428.22;3975859;29;20168;-74
2024/01/31 09:20:47;;;;;;;4.85;2.45;;;;;;;9.44;67.40;102428.22;3970274;29;20442;-74
2024/01/31 09:22:49;;;;;;;4.78;2.63;;;;;;;9.49;66.83;102425.88;3975921;29;20047;-74
2024/01/31 09:24:52;;;;;;;4.18;2.78;;;;;;;9.54;66.84;102414.00;3956432;29;20051;-74
2024/01/31 09:26:55;;;;;;;6.70;2.80;;;;;;;9.55;66.26;102421.00;3976059;29;20046;-74
2024/01/31 09:28:58;;;;;;;5.20;2.70;;;;;;;9.55;65.84;102414.88;3955878;30;20039;-74
2024/01/31 09:31:02;;;;;;;5.82;2.88;;;;;;;9.60;65.53;102405.63;3976275;29;20046;-74
2024/01/31 09:33:05;;;;;;;6.22;3.35;;;;;;;9.62;65.19;102406.59;3975959;29;20146;-74